sensor_id;sensor_type;location;lat;lon;timestamp;P1;durP1;ratioP1;P2;durP2;ratioP2
35803;SDS011;21924;51.934;7.414;2023-04-25T00:02:17;17.05;;;7.50;;
35803;SDS011;21924;51.934;7.414;2023-04-25T00:05:03;20.27;;;6.45;;
35803;SDS011;21924;51.934;7.414;2023-04-25T00:07:48;17.33;;;7.13;;
35803;SDS011;21924;51.934;7.414;2023-04-25T00:10:33;17.48;;;6.50;;
35803;SDS011;21924;51.934;7.414;2023-04-25T00:13:18;10.90;;;5.80;;
35803;SDS011;21924;51.934;7.414;2023-04-25T00:16:03;16.52;;;6.65;;
35803;SDS011;21924;51.934;7.414;2023-04-25T00:18:47;17.73;;;5.80;;
35803;SDS011;21924;51.934;7.414;2023-04-25T00:21:35;12.23;;;6.30;;
35803;SDS011;21924;51.934;7.414;2023-04-25T00:24:21;16.10;;;6.30;;
35803;SDS011;21924;51.934;7.414;2023-04-25T00:27:05;10.05;;;5.68;;
35803;SDS011;21924;51.934;7.414;2023-04-25T00:29:50;17.88;;;6.18;;
35803;SDS011;21924;51.934;7.414;2023-04-25T00:32:34;12.75;;;5.82;;
35803;SDS011;21924;51.934;7.414;2023-04-25T00:35:18;14.75;;;5.90;;
35803;SDS011;21924;51.934;7.414;2023-04-25T00:38:03;14.60;;;6.13;;
35803;SDS011;21924;51.934;7.414;2023-04-25T00:40:47;17.52;;;6.38;;
35803;SDS011;21924;51.934;7.414;2023-04-25T00:43:31;15.40;;;5.72;;
35803;SDS011;21924;51.934;7.414;2023-04-25T00:46:17;12.57;;;6.32;;
35803;SDS011;21924;51.934;7.414;2023-04-25T00:49:01;13.95;;;6.38;;
35803;SDS011;21924;51.934;7.414;2023-04-25T00:51:46;21.92;;;6.38;;
35803;SDS011;21924;51.934;7.414;2023-04-25T00:54:30;11.77;;;5.53;;
35803;SDS011;21924;51.934;7.414;2023-04-25T00:57:15;13.05;;;6.32;;
35803;SDS011;21924;51.934;7.414;2023-04-25T00:59:59;15.75;;;6.07;;
35803;SDS011;21924;51.934;7.414;2023-04-25T01:02:44;8.25;;;4.70;;
35803;SDS011;21924;51.934;7.414;2023-04-25T01:05:29;11.05;;;6.60;;
35803;SDS011;21924;51.934;7.414;2023-04-25T01:08:13;11.73;;;5.00;;
35803;SDS011;21924;51.934;7.414;2023-04-25T01:10:58;9.95;;;4.40;;
35803;SDS011;21924;51.934;7.414;2023-04-25T01:13:42;9.15;;;4.97;;
35803;SDS011;21924;51.934;7.414;2023-04-25T01:16:26;10.15;;;5.18;;
35803;SDS011;21924;51.934;7.414;2023-04-25T01:19:11;7.78;;;4.88;;
35803;SDS011;21924;51.934;7.414;2023-04-25T01:21:55;9.60;;;5.07;;
35803;SDS011;21924;51.934;7.414;2023-04-25T01:24:40;16.83;;;5.35;;
35803;SDS011;21924;51.934;7.414;2023-04-25T01:27:25;11.23;;;5.00;;
35803;SDS011;21924;51.934;7.414;2023-04-25T01:30:09;12.18;;;4.75;;
35803;SDS011;21924;51.934;7.414;2023-04-25T01:32:55;14.20;;;4.82;;
35803;SDS011;21924;51.934;7.414;2023-04-25T01:35:39;14.65;;;5.00;;
35803;SDS011;21924;51.934;7.414;2023-04-25T01:38:24;18.60;;;6.05;;
35803;SDS011;21924;51.934;7.414;2023-04-25T01:41:09;14.75;;;5.68;;
35803;SDS011;21924;51.934;7.414;2023-04-25T01:43:54;19.33;;;6.00;;
35803;SDS011;21924;51.934;7.414;2023-04-25T01:46:38;14.85;;;6.15;;
35803;SDS011;21924;51.934;7.414;2023-04-25T01:49:23;8.90;;;4.65;;
35803;SDS011;21924;51.934;7.414;2023-04-25T01:52:07;21.00;;;5.97;;
35803;SDS011;21924;51.934;7.414;2023-04-25T01:54:52;22.73;;;5.53;;
35803;SDS011;21924;51.934;7.414;2023-04-25T01:57:37;19.60;;;6.28;;
35803;SDS011;21924;51.934;7.414;2023-04-25T02:00:21;17.67;;;5.30;;
35803;SDS011;21924;51.934;7.414;2023-04-25T02:03:06;21.38;;;6.88;;
35803;SDS011;21924;51.934;7.414;2023-04-25T02:05:51;22.25;;;5.57;;
35803;SDS011;21924;51.934;7.414;2023-04-25T02:08:35;26.67;;;6.25;;
35803;SDS011;21924;51.934;7.414;2023-04-25T02:11:21;16.45;;;4.95;;
35803;SDS011;21924;51.934;7.414;2023-04-25T02:14:05;13.50;;;4.80;;
35803;SDS011;21924;51.934;7.414;2023-04-25T02:16:49;19.00;;;6.18;;
35803;SDS011;21924;51.934;7.414;2023-04-25T02:19:34;22.50;;;5.57;;
35803;SDS011;21924;51.934;7.414;2023-04-25T02:22:18;18.02;;;4.78;;
35803;SDS011;21924;51.934;7.414;2023-04-25T02:25:03;18.38;;;5.28;;
35803;SDS011;21924;51.934;7.414;2023-04-25T02:27:48;10.73;;;5.68;;
35803;SDS011;21924;51.934;7.414;2023-04-25T02:30:32;14.40;;;5.50;;
35803;SDS011;21924;51.934;7.414;2023-04-25T02:33:16;21.27;;;5.80;;
35803;SDS011;21924;51.934;7.414;2023-04-25T02:36:01;20.58;;;5.57;;
35803;SDS011;21924;51.934;7.414;2023-04-25T02:38:45;12.70;;;4.70;;
35803;SDS011;21924;51.934;7.414;2023-04-25T02:41:30;23.48;;;5.32;;
35803;SDS011;21924;51.934;7.414;2023-04-25T02:44:14;19.02;;;6.20;;
35803;SDS011;21924;51.934;7.414;2023-04-25T02:46:58;29.80;;;6.22;;
35803;SDS011;21924;51.934;7.414;2023-04-25T02:49:42;18.58;;;4.95;;
35803;SDS011;21924;51.934;7.414;2023-04-25T02:52:26;13.85;;;5.00;;
35803;SDS011;21924;51.934;7.414;2023-04-25T02:55:11;18.50;;;5.50;;
35803;SDS011;21924;51.934;7.414;2023-04-25T02:57:57;23.77;;;5.20;;
35803;SDS011;21924;51.934;7.414;2023-04-25T03:00:41;18.27;;;5.32;;
35803;SDS011;21924;51.934;7.414;2023-04-25T03:03:25;17.40;;;5.47;;
35803;SDS011;21924;51.934;7.414;2023-04-25T03:06:09;27.98;;;4.85;;
35803;SDS011;21924;51.934;7.414;2023-04-25T03:08:54;16.13;;;5.32;;
35803;SDS011;21924;51.934;7.414;2023-04-25T03:11:38;26.58;;;6.43;;
35803;SDS011;21924;51.934;7.414;2023-04-25T03:14:22;20.65;;;5.13;;
35803;SDS011;21924;51.934;7.414;2023-04-25T03:17:07;28.38;;;5.82;;
35803;SDS011;21924;51.934;7.414;2023-04-25T03:19:51;27.85;;;6.70;;
35803;SDS011;21924;51.934;7.414;2023-04-25T03:22:35;21.35;;;6.15;;
35803;SDS011;21924;51.934;7.414;2023-04-25T03:25:19;21.73;;;7.57;;
35803;SDS011;21924;51.934;7.414;2023-04-25T03:28:04;14.90;;;5.95;;
35803;SDS011;21924;51.934;7.414;2023-04-25T03:30:48;24.85;;;6.72;;
35803;SDS011;21924;51.934;7.414;2023-04-25T03:33:33;28.83;;;6.55;;
35803;SDS011;21924;51.934;7.414;2023-04-25T03:36:17;21.73;;;6.25;;
35803;SDS011;21924;51.934;7.414;2023-04-25T03:39:02;21.15;;;6.57;;
35803;SDS011;21924;51.934;7.414;2023-04-25T03:41:46;22.40;;;7.25;;
35803;SDS011;21924;51.934;7.414;2023-04-25T03:44:30;23.05;;;6.32;;
35803;SDS011;21924;51.934;7.414;2023-04-25T03:47:15;33.35;;;6.70;;
35803;SDS011;21924;51.934;7.414;2023-04-25T03:49:59;22.77;;;6.43;;
35803;SDS011;21924;51.934;7.414;2023-04-25T03:52:45;14.93;;;7.63;;
35803;SDS011;21924;51.934;7.414;2023-04-25T03:55:29;26.67;;;6.60;;
35803;SDS011;21924;51.934;7.414;2023-04-25T03:58:14;16.80;;;5.07;;
35803;SDS011;21924;51.934;7.414;2023-04-25T04:00:58;21.95;;;5.82;;
35803;SDS011;21924;51.934;7.414;2023-04-25T04:03:43;18.92;;;5.97;;
35803;SDS011;21924;51.934;7.414;2023-04-25T04:06:27;22.27;;;6.93;;
35803;SDS011;21924;51.934;7.414;2023-04-25T04:09:12;26.38;;;6.07;;
35803;SDS011;21924;51.934;7.414;2023-04-25T04:11:56;19.60;;;5.18;;
35803;SDS011;21924;51.934;7.414;2023-04-25T04:14:40;21.40;;;6.57;;
35803;SDS011;21924;51.934;7.414;2023-04-25T04:17:24;21.08;;;6.15;;
35803;SDS011;21924;51.934;7.414;2023-04-25T04:20:09;25.42;;;5.10;;
35803;SDS011;21924;51.934;7.414;2023-04-25T04:22:54;25.55;;;6.88;;
35803;SDS011;21924;51.934;7.414;2023-04-25T04:25:38;19.20;;;5.78;;
35803;SDS011;21924;51.934;7.414;2023-04-25T04:28:23;19.95;;;5.78;;
35803;SDS011;21924;51.934;7.414;2023-04-25T04:31:09;19.88;;;5.82;;
35803;SDS011;21924;51.934;7.414;2023-04-25T04:33:54;21.90;;;7.65;;
35803;SDS011;21924;51.934;7.414;2023-04-25T04:36:38;18.67;;;5.38;;
35803;SDS011;21924;51.934;7.414;2023-04-25T04:39:23;16.60;;;5.47;;
35803;SDS011;21924;51.934;7.414;2023-04-25T04:42:08;23.88;;;5.57;;
35803;SDS011;21924;51.934;7.414;2023-04-25T04:44:53;15.18;;;6.10;;
35803;SDS011;21924;51.934;7.414;2023-04-25T04:47:38;18.50;;;5.73;;
35803;SDS011;21924;51.934;7.414;2023-04-25T04:50:23;23.67;;;5.60;;
35803;SDS011;21924;51.934;7.414;2023-04-25T04:53:07;23.98;;;5.30;;
35803;SDS011;21924;51.934;7.414;2023-04-25T04:55:52;35.47;;;6.05;;
35803;SDS011;21924;51.934;7.414;2023-04-25T04:58:36;17.70;;;5.15;;
35803;SDS011;21924;51.934;7.414;2023-04-25T05:01:21;16.27;;;5.25;;
35803;SDS011;21924;51.934;7.414;2023-04-25T05:04:05;24.88;;;6.07;;
35803;SDS011;21924;51.934;7.414;2023-04-25T05:06:50;25.73;;;6.80;;
35803;SDS011;21924;51.934;7.414;2023-04-25T05:09:34;15.02;;;5.88;;
35803;SDS011;21924;51.934;7.414;2023-04-25T05:12:19;13.27;;;5.32;;
35803;SDS011;21924;51.934;7.414;2023-04-25T05:15:03;15.40;;;6.35;;
35803;SDS011;21924;51.934;7.414;2023-04-25T05:17:48;16.77;;;6.40;;
35803;SDS011;21924;51.934;7.414;2023-04-25T05:20:32;32.83;;;6.40;;
35803;SDS011;21924;51.934;7.414;2023-04-25T05:23:16;22.35;;;6.20;;
35803;SDS011;21924;51.934;7.414;2023-04-25T05:26:01;14.25;;;5.85;;
35803;SDS011;21924;51.934;7.414;2023-04-25T05:28:45;18.08;;;5.25;;
35803;SDS011;21924;51.934;7.414;2023-04-25T05:31:29;22.52;;;5.13;;
35803;SDS011;21924;51.934;7.414;2023-04-25T05:34:14;22.23;;;5.68;;
35803;SDS011;21924;51.934;7.414;2023-04-25T05:36:59;23.15;;;5.53;;
35803;SDS011;21924;51.934;7.414;2023-04-25T05:39:43;10.52;;;5.03;;
35803;SDS011;21924;51.934;7.414;2023-04-25T05:42:28;13.02;;;6.55;;
35803;SDS011;21924;51.934;7.414;2023-04-25T05:45:12;24.38;;;5.68;;
35803;SDS011;21924;51.934;7.414;2023-04-25T05:47:57;18.92;;;5.38;;
35803;SDS011;21924;51.934;7.414;2023-04-25T05:50:41;25.27;;;5.25;;
35803;SDS011;21924;51.934;7.414;2023-04-25T05:53:25;15.00;;;5.53;;
35803;SDS011;21924;51.934;7.414;2023-04-25T05:56:09;21.17;;;5.70;;
35803;SDS011;21924;51.934;7.414;2023-04-25T05:58:54;17.88;;;4.82;;
35803;SDS011;21924;51.934;7.414;2023-04-25T06:01:38;17.92;;;5.05;;
35803;SDS011;21924;51.934;7.414;2023-04-25T06:04:24;25.30;;;5.80;;
35803;SDS011;21924;51.934;7.414;2023-04-25T06:07:09;18.17;;;5.05;;
35803;SDS011;21924;51.934;7.414;2023-04-25T06:09:53;26.25;;;5.95;;
35803;SDS011;21924;51.934;7.414;2023-04-25T06:12:37;10.30;;;5.57;;
35803;SDS011;21924;51.934;7.414;2023-04-25T06:15:22;14.85;;;4.47;;
35803;SDS011;21924;51.934;7.414;2023-04-25T06:18:06;16.13;;;4.53;;
35803;SDS011;21924;51.934;7.414;2023-04-25T06:20:51;12.68;;;4.72;;
35803;SDS011;21924;51.934;7.414;2023-04-25T06:23:35;21.17;;;4.95;;
35803;SDS011;21924;51.934;7.414;2023-04-25T06:26:19;9.32;;;3.65;;
35803;SDS011;21924;51.934;7.414;2023-04-25T06:29:03;19.25;;;4.22;;
35803;SDS011;21924;51.934;7.414;2023-04-25T06:31:47;20.48;;;5.38;;
35803;SDS011;21924;51.934;7.414;2023-04-25T06:34:32;16.17;;;4.38;;
35803;SDS011;21924;51.934;7.414;2023-04-25T06:37:16;28.23;;;5.38;;
35803;SDS011;21924;51.934;7.414;2023-04-25T06:40:00;13.98;;;4.45;;
35803;SDS011;21924;51.934;7.414;2023-04-25T06:42:44;18.25;;;5.50;;
35803;SDS011;21924;51.934;7.414;2023-04-25T06:45:29;21.52;;;4.10;;
35803;SDS011;21924;51.934;7.414;2023-04-25T06:48:13;14.73;;;3.80;;
35803;SDS011;21924;51.934;7.414;2023-04-25T06:50:57;20.33;;;4.93;;
35803;SDS011;21924;51.934;7.414;2023-04-25T06:53:41;9.88;;;3.05;;
35803;SDS011;21924;51.934;7.414;2023-04-25T06:56:26;14.40;;;4.22;;
35803;SDS011;21924;51.934;7.414;2023-04-25T06:59:13;13.63;;;4.03;;
35803;SDS011;21924;51.934;7.414;2023-04-25T07:01:57;12.05;;;3.70;;
35803;SDS011;21924;51.934;7.414;2023-04-25T07:04:41;11.57;;;3.80;;
35803;SDS011;21924;51.934;7.414;2023-04-25T07:07:26;16.90;;;4.10;;
35803;SDS011;21924;51.934;7.414;2023-04-25T07:10:11;9.90;;;3.50;;
35803;SDS011;21924;51.934;7.414;2023-04-25T07:12:55;23.13;;;4.13;;
35803;SDS011;21924;51.934;7.414;2023-04-25T07:15:39;17.98;;;3.80;;
35803;SDS011;21924;51.934;7.414;2023-04-25T07:18:23;16.17;;;4.03;;
35803;SDS011;21924;51.934;7.414;2023-04-25T07:21:08;12.23;;;3.72;;
35803;SDS011;21924;51.934;7.414;2023-04-25T07:23:52;13.23;;;4.20;;
35803;SDS011;21924;51.934;7.414;2023-04-25T07:26:36;14.27;;;3.72;;
35803;SDS011;21924;51.934;7.414;2023-04-25T07:29:21;14.10;;;4.05;;
35803;SDS011;21924;51.934;7.414;2023-04-25T07:32:05;14.93;;;3.83;;
35803;SDS011;21924;51.934;7.414;2023-04-25T07:34:49;15.43;;;3.88;;
35803;SDS011;21924;51.934;7.414;2023-04-25T07:37:35;8.03;;;3.27;;
35803;SDS011;21924;51.934;7.414;2023-04-25T07:40:19;8.23;;;3.40;;
35803;SDS011;21924;51.934;7.414;2023-04-25T07:43:03;17.10;;;3.67;;
35803;SDS011;21924;51.934;7.414;2023-04-25T07:45:47;16.60;;;3.50;;
35803;SDS011;21924;51.934;7.414;2023-04-25T07:48:32;12.68;;;3.78;;
35803;SDS011;21924;51.934;7.414;2023-04-25T07:51:16;15.50;;;4.20;;
35803;SDS011;21924;51.934;7.414;2023-04-25T07:54:03;12.55;;;3.90;;
35803;SDS011;21924;51.934;7.414;2023-04-25T07:56:48;14.53;;;3.73;;
35803;SDS011;21924;51.934;7.414;2023-04-25T07:59:33;15.90;;;3.67;;
35803;SDS011;21924;51.934;7.414;2023-04-25T08:02:17;12.20;;;3.83;;
35803;SDS011;21924;51.934;7.414;2023-04-25T08:05:02;17.02;;;3.90;;
35803;SDS011;21924;51.934;7.414;2023-04-25T08:07:46;12.30;;;3.97;;
35803;SDS011;21924;51.934;7.414;2023-04-25T08:10:30;10.95;;;3.25;;
35803;SDS011;21924;51.934;7.414;2023-04-25T08:13:15;7.53;;;3.10;;
35803;SDS011;21924;51.934;7.414;2023-04-25T08:15:59;8.60;;;2.90;;
35803;SDS011;21924;51.934;7.414;2023-04-25T08:18:43;15.80;;;3.63;;
35803;SDS011;21924;51.934;7.414;2023-04-25T08:21:27;9.55;;;3.15;;
35803;SDS011;21924;51.934;7.414;2023-04-25T08:24:12;12.57;;;3.45;;
35803;SDS011;21924;51.934;7.414;2023-04-25T08:26:56;11.02;;;3.00;;
35803;SDS011;21924;51.934;7.414;2023-04-25T08:29:42;20.08;;;3.45;;
35803;SDS011;21924;51.934;7.414;2023-04-25T08:32:26;15.68;;;3.45;;
35803;SDS011;21924;51.934;7.414;2023-04-25T08:35:11;3.95;;;2.78;;
35803;SDS011;21924;51.934;7.414;2023-04-25T08:37:55;6.57;;;3.20;;
35803;SDS011;21924;51.934;7.414;2023-04-25T08:40:39;6.45;;;3.20;;
35803;SDS011;21924;51.934;7.414;2023-04-25T08:43:24;6.40;;;2.70;;
35803;SDS011;21924;51.934;7.414;2023-04-25T08:46:08;6.88;;;2.58;;
35803;SDS011;21924;51.934;7.414;2023-04-25T08:48:55;9.18;;;3.05;;
35803;SDS011;21924;51.934;7.414;2023-04-25T08:51:45;9.18;;;2.97;;
35803;SDS011;21924;51.934;7.414;2023-04-25T08:54:31;10.85;;;3.28;;
35803;SDS011;21924;51.934;7.414;2023-04-25T08:57:15;10.18;;;2.95;;
35803;SDS011;21924;51.934;7.414;2023-04-25T09:00:02;7.15;;;3.20;;
35803;SDS011;21924;51.934;7.414;2023-04-25T09:02:47;8.88;;;2.97;;
35803;SDS011;21924;51.934;7.414;2023-04-25T09:05:34;7.75;;;3.33;;
35803;SDS011;21924;51.934;7.414;2023-04-25T09:08:19;11.32;;;2.90;;
35803;SDS011;21924;51.934;7.414;2023-04-25T09:11:03;8.35;;;2.80;;
35803;SDS011;21924;51.934;7.414;2023-04-25T09:13:47;5.07;;;2.30;;
35803;SDS011;21924;51.934;7.414;2023-04-25T09:16:32;12.35;;;2.55;;
35803;SDS011;21924;51.934;7.414;2023-04-25T09:19:21;2.58;;;2.10;;
35803;SDS011;21924;51.934;7.414;2023-04-25T09:22:09;5.60;;;2.35;;
35803;SDS011;21924;51.934;7.414;2023-04-25T09:24:53;9.98;;;2.90;;
35803;SDS011;21924;51.934;7.414;2023-04-25T09:27:49;9.90;;;3.33;;
35803;SDS011;21924;51.934;7.414;2023-04-25T09:30:35;10.77;;;3.10;;
35803;SDS011;21924;51.934;7.414;2023-04-25T09:33:20;7.30;;;2.85;;
35803;SDS011;21924;51.934;7.414;2023-04-25T09:36:05;8.85;;;2.47;;
35803;SDS011;21924;51.934;7.414;2023-04-25T09:41:37;27.58;;;10.68;;
35803;SDS011;21924;51.934;7.414;2023-04-25T09:44:23;9.43;;;3.00;;
35803;SDS011;21924;51.934;7.414;2023-04-25T09:47:09;9.77;;;2.33;;
35803;SDS011;21924;51.934;7.414;2023-04-25T09:49:55;9.52;;;3.20;;
35803;SDS011;21924;51.934;7.414;2023-04-25T09:52:39;7.00;;;2.25;;
35803;SDS011;21924;51.934;7.414;2023-04-25T09:55:23;7.13;;;1.80;;
35803;SDS011;21924;51.934;7.414;2023-04-25T09:58:08;12.30;;;2.03;;
35803;SDS011;21924;51.934;7.414;2023-04-25T10:00:55;3.83;;;2.70;;
35803;SDS011;21924;51.934;7.414;2023-04-25T10:03:47;6.95;;;2.22;;
35803;SDS011;21924;51.934;7.414;2023-04-25T10:06:34;5.60;;;2.85;;
35803;SDS011;21924;51.934;7.414;2023-04-25T10:09:19;9.05;;;2.58;;
35803;SDS011;21924;51.934;7.414;2023-04-25T10:12:05;8.60;;;3.20;;
35803;SDS011;21924;51.934;7.414;2023-04-25T10:14:50;10.25;;;3.53;;
35803;SDS011;21924;51.934;7.414;2023-04-25T10:17:36;9.32;;;2.28;;
35803;SDS011;21924;51.934;7.414;2023-04-25T10:20:21;5.95;;;2.35;;
35803;SDS011;21924;51.934;7.414;2023-04-25T10:23:11;6.60;;;2.20;;
35803;SDS011;21924;51.934;7.414;2023-04-25T10:25:57;6.68;;;2.60;;
35803;SDS011;21924;51.934;7.414;2023-04-25T10:28:54;6.15;;;2.22;;
35803;SDS011;21924;51.934;7.414;2023-04-25T10:31:46;16.63;;;2.30;;
35803;SDS011;21924;51.934;7.414;2023-04-25T10:34:37;14.02;;;2.47;;
35803;SDS011;21924;51.934;7.414;2023-04-25T10:37:25;5.72;;;2.00;;
35803;SDS011;21924;51.934;7.414;2023-04-25T10:40:10;4.90;;;1.98;;
35803;SDS011;21924;51.934;7.414;2023-04-25T10:42:55;6.15;;;2.00;;
35803;SDS011;21924;51.934;7.414;2023-04-25T10:45:52;9.55;;;1.85;;
35803;SDS011;21924;51.934;7.414;2023-04-25T10:48:36;13.98;;;2.40;;
35803;SDS011;21924;51.934;7.414;2023-04-25T10:51:24;6.35;;;2.10;;
35803;SDS011;21924;51.934;7.414;2023-04-25T10:54:14;11.55;;;2.10;;
35803;SDS011;21924;51.934;7.414;2023-04-25T10:57:01;4.05;;;1.70;;
35803;SDS011;21924;51.934;7.414;2023-04-25T10:59:45;6.15;;;2.10;;
35803;SDS011;21924;51.934;7.414;2023-04-25T11:02:29;5.07;;;1.70;;
35803;SDS011;21924;51.934;7.414;2023-04-25T11:05:28;4.18;;;1.77;;
35803;SDS011;21924;51.934;7.414;2023-04-25T11:08:15;4.55;;;1.83;;
35803;SDS011;21924;51.934;7.414;2023-04-25T11:11:17;10.40;;;2.40;;
35803;SDS011;21924;51.934;7.414;2023-04-25T11:14:02;6.83;;;2.30;;
35803;SDS011;21924;51.934;7.414;2023-04-25T11:16:46;8.32;;;2.00;;
35803;SDS011;21924;51.934;7.414;2023-04-25T11:19:31;5.45;;;2.55;;
35803;SDS011;21924;51.934;7.414;2023-04-25T11:22:15;3.35;;;2.05;;
35803;SDS011;21924;51.934;7.414;2023-04-25T11:25:04;5.07;;;2.10;;
35803;SDS011;21924;51.934;7.414;2023-04-25T11:30:38;8.70;;;2.75;;
35803;SDS011;21924;51.934;7.414;2023-04-25T11:33:23;3.85;;;2.13;;
35803;SDS011;21924;51.934;7.414;2023-04-25T11:36:08;5.50;;;2.08;;
35803;SDS011;21924;51.934;7.414;2023-04-25T11:38:53;5.10;;;2.03;;
35803;SDS011;21924;51.934;7.414;2023-04-25T11:41:38;5.57;;;1.90;;
35803;SDS011;21924;51.934;7.414;2023-04-25T11:44:22;5.38;;;1.73;;
35803;SDS011;21924;51.934;7.414;2023-04-25T11:47:07;5.43;;;1.83;;
35803;SDS011;21924;51.934;7.414;2023-04-25T11:49:52;5.25;;;2.15;;
35803;SDS011;21924;51.934;7.414;2023-04-25T11:52:44;9.48;;;2.40;;
35803;SDS011;21924;51.934;7.414;2023-04-25T11:55:29;8.43;;;2.75;;
35803;SDS011;21924;51.934;7.414;2023-04-25T11:58:14;1.73;;;1.63;;
35803;SDS011;21924;51.934;7.414;2023-04-25T12:00:58;5.15;;;1.95;;
35803;SDS011;21924;51.934;7.414;2023-04-25T12:03:46;4.72;;;1.98;;
35803;SDS011;21924;51.934;7.414;2023-04-25T12:06:30;6.15;;;1.60;;
35803;SDS011;21924;51.934;7.414;2023-04-25T12:09:16;2.47;;;2.25;;
35803;SDS011;21924;51.934;7.414;2023-04-25T12:12:14;3.03;;;1.38;;
35803;SDS011;21924;51.934;7.414;2023-04-25T12:15:11;9.20;;;2.90;;
35803;SDS011;21924;51.934;7.414;2023-04-25T12:17:58;3.25;;;1.80;;
35803;SDS011;21924;51.934;7.414;2023-04-25T12:20:45;3.65;;;2.38;;
35803;SDS011;21924;51.934;7.414;2023-04-25T12:23:29;2.42;;;1.85;;
35803;SDS011;21924;51.934;7.414;2023-04-25T12:26:13;8.38;;;2.13;;
35803;SDS011;21924;51.934;7.414;2023-04-25T12:28:58;5.07;;;1.80;;
35803;SDS011;21924;51.934;7.414;2023-04-25T12:31:43;3.97;;;1.90;;
35803;SDS011;21924;51.934;7.414;2023-04-25T12:34:29;8.77;;;1.90;;
35803;SDS011;21924;51.934;7.414;2023-04-25T12:39:59;3.95;;;2.30;;
35803;SDS011;21924;51.934;7.414;2023-04-25T12:42:43;7.15;;;2.28;;
35803;SDS011;21924;51.934;7.414;2023-04-25T12:45:27;5.10;;;1.70;;
35803;SDS011;21924;51.934;7.414;2023-04-25T12:48:12;7.35;;;1.85;;
35803;SDS011;21924;51.934;7.414;2023-04-25T12:50:56;9.25;;;3.08;;
35803;SDS011;21924;51.934;7.414;2023-04-25T12:53:40;10.40;;;2.65;;
35803;SDS011;21924;51.934;7.414;2023-04-25T12:56:25;3.42;;;1.92;;
35803;SDS011;21924;51.934;7.414;2023-04-25T12:59:11;3.25;;;2.03;;
35803;SDS011;21924;51.934;7.414;2023-04-25T13:01:55;2.15;;;1.58;;
35803;SDS011;21924;51.934;7.414;2023-04-25T13:04:39;4.05;;;1.77;;
35803;SDS011;21924;51.934;7.414;2023-04-25T13:07:24;5.88;;;1.60;;
35803;SDS011;21924;51.934;7.414;2023-04-25T13:10:09;1.77;;;1.25;;
35803;SDS011;21924;51.934;7.414;2023-04-25T13:12:53;5.43;;;1.55;;
35803;SDS011;21924;51.934;7.414;2023-04-25T13:15:37;4.60;;;1.48;;
35803;SDS011;21924;51.934;7.414;2023-04-25T13:18:21;4.75;;;1.50;;
35803;SDS011;21924;51.934;7.414;2023-04-25T13:21:09;4.22;;;1.58;;
35803;SDS011;21924;51.934;7.414;2023-04-25T13:23:57;8.32;;;1.67;;
35803;SDS011;21924;51.934;7.414;2023-04-25T13:26:41;5.15;;;1.90;;
35803;SDS011;21924;51.934;7.414;2023-04-25T13:29:25;7.15;;;1.90;;
35803;SDS011;21924;51.934;7.414;2023-04-25T13:32:10;8.27;;;2.60;;
35803;SDS011;21924;51.934;7.414;2023-04-25T13:34:54;3.83;;;1.90;;
35803;SDS011;21924;51.934;7.414;2023-04-25T13:37:39;6.30;;;2.30;;
35803;SDS011;21924;51.934;7.414;2023-04-25T13:40:23;2.92;;;1.65;;
35803;SDS011;21924;51.934;7.414;2023-04-25T13:43:08;5.30;;;1.70;;
35803;SDS011;21924;51.934;7.414;2023-04-25T13:45:52;5.10;;;1.90;;
35803;SDS011;21924;51.934;7.414;2023-04-25T13:48:36;5.40;;;3.10;;
35803;SDS011;21924;51.934;7.414;2023-04-25T13:51:20;14.10;;;2.78;;
35803;SDS011;21924;51.934;7.414;2023-04-25T13:54:05;11.18;;;2.03;;
35803;SDS011;21924;51.934;7.414;2023-04-25T13:56:49;7.95;;;2.03;;
35803;SDS011;21924;51.934;7.414;2023-04-25T13:59:34;3.47;;;1.83;;
35803;SDS011;21924;51.934;7.414;2023-04-25T14:02:18;4.70;;;1.83;;
35803;SDS011;21924;51.934;7.414;2023-04-25T14:05:03;13.00;;;2.08;;
35803;SDS011;21924;51.934;7.414;2023-04-25T14:07:48;7.00;;;1.98;;
35803;SDS011;21924;51.934;7.414;2023-04-25T14:10:32;7.18;;;2.38;;
35803;SDS011;21924;51.934;7.414;2023-04-25T14:13:16;10.13;;;2.65;;
35803;SDS011;21924;51.934;7.414;2023-04-25T14:16:01;2.28;;;1.80;;
35803;SDS011;21924;51.934;7.414;2023-04-25T14:18:45;4.38;;;1.73;;
35803;SDS011;21924;51.934;7.414;2023-04-25T14:21:29;5.57;;;2.65;;
35803;SDS011;21924;51.934;7.414;2023-04-25T14:27:00;8.82;;;2.20;;
35803;SDS011;21924;51.934;7.414;2023-04-25T14:29:44;3.75;;;1.10;;
35803;SDS011;21924;51.934;7.414;2023-04-25T14:32:29;6.25;;;1.50;;
35803;SDS011;21924;51.934;7.414;2023-04-25T14:35:15;4.78;;;1.40;;
35803;SDS011;21924;51.934;7.414;2023-04-25T14:37:59;3.88;;;1.83;;
35803;SDS011;21924;51.934;7.414;2023-04-25T14:40:44;7.13;;;3.33;;
35803;SDS011;21924;51.934;7.414;2023-04-25T14:43:28;4.45;;;1.70;;
35803;SDS011;21924;51.934;7.414;2023-04-25T14:46:12;4.43;;;1.63;;
35803;SDS011;21924;51.934;7.414;2023-04-25T14:48:57;2.67;;;1.60;;
35803;SDS011;21924;51.934;7.414;2023-04-25T14:51:41;2.85;;;1.10;;
35803;SDS011;21924;51.934;7.414;2023-04-25T14:54:25;1.52;;;1.17;;
35803;SDS011;21924;51.934;7.414;2023-04-25T14:57:09;1.52;;;1.25;;
35803;SDS011;21924;51.934;7.414;2023-04-25T14:59:54;6.22;;;1.27;;
35803;SDS011;21924;51.934;7.414;2023-04-25T15:02:38;5.55;;;1.40;;
35803;SDS011;21924;51.934;7.414;2023-04-25T15:05:22;5.22;;;1.27;;
35803;SDS011;21924;51.934;7.414;2023-04-25T15:08:06;5.35;;;1.52;;
35803;SDS011;21924;51.934;7.414;2023-04-25T15:10:50;2.05;;;1.00;;
35803;SDS011;21924;51.934;7.414;2023-04-25T15:13:35;2.05;;;1.00;;
35803;SDS011;21924;51.934;7.414;2023-04-25T15:16:19;2.65;;;1.10;;
35803;SDS011;21924;51.934;7.414;2023-04-25T15:19:04;3.83;;;1.60;;
35803;SDS011;21924;51.934;7.414;2023-04-25T15:21:49;4.45;;;1.10;;
35803;SDS011;21924;51.934;7.414;2023-04-25T15:24:33;3.33;;;1.20;;
35803;SDS011;21924;51.934;7.414;2023-04-25T15:27:18;5.28;;;1.88;;
35803;SDS011;21924;51.934;7.414;2023-04-25T15:30:02;4.43;;;2.08;;
35803;SDS011;21924;51.934;7.414;2023-04-25T15:32:49;6.07;;;1.85;;
35803;SDS011;21924;51.934;7.414;2023-04-25T15:35:33;5.43;;;1.98;;
35803;SDS011;21924;51.934;7.414;2023-04-25T15:38:17;6.63;;;2.28;;
35803;SDS011;21924;51.934;7.414;2023-04-25T15:41:02;8.52;;;2.30;;
35803;SDS011;21924;51.934;7.414;2023-04-25T15:43:46;8.88;;;3.13;;
35803;SDS011;21924;51.934;7.414;2023-04-25T15:46:31;5.93;;;1.92;;
35803;SDS011;21924;51.934;7.414;2023-04-25T15:49:15;3.47;;;2.20;;
35803;SDS011;21924;51.934;7.414;2023-04-25T15:51:59;5.43;;;2.03;;
35803;SDS011;21924;51.934;7.414;2023-04-25T15:54:43;4.63;;;1.70;;
35803;SDS011;21924;51.934;7.414;2023-04-25T15:57:28;2.33;;;1.80;;
35803;SDS011;21924;51.934;7.414;2023-04-25T16:00:12;7.30;;;1.75;;
35803;SDS011;21924;51.934;7.414;2023-04-25T16:02:57;2.28;;;1.55;;
35803;SDS011;21924;51.934;7.414;2023-04-25T16:05:41;6.50;;;1.80;;
35803;SDS011;21924;51.934;7.414;2023-04-25T16:08:26;4.95;;;2.10;;
35803;SDS011;21924;51.934;7.414;2023-04-25T16:11:12;3.28;;;1.88;;
35803;SDS011;21924;51.934;7.414;2023-04-25T16:13:57;3.65;;;1.70;;
35803;SDS011;21924;51.934;7.414;2023-04-25T16:16:41;4.50;;;1.67;;
35803;SDS011;21924;51.934;7.414;2023-04-25T16:19:27;8.50;;;2.28;;
35803;SDS011;21924;51.934;7.414;2023-04-25T16:22:11;11.85;;;2.03;;
35803;SDS011;21924;51.934;7.414;2023-04-25T16:24:59;6.18;;;1.90;;
35803;SDS011;21924;51.934;7.414;2023-04-25T16:27:43;7.80;;;2.47;;
35803;SDS011;21924;51.934;7.414;2023-04-25T16:30:27;6.20;;;2.63;;
35803;SDS011;21924;51.934;7.414;2023-04-25T16:33:12;7.63;;;2.30;;
35803;SDS011;21924;51.934;7.414;2023-04-25T16:35:56;5.72;;;2.65;;
35803;SDS011;21924;51.934;7.414;2023-04-25T16:38:40;11.10;;;2.60;;